createdAt,value
2018-10-03T00:01:21.969Z,5.12
2018-10-03T00:03:50.065Z,5.00
2018-10-03T00:06:18.116Z,6.30
2018-10-03T00:08:46.169Z,5.40
2018-10-03T00:11:14.233Z,5.97
2018-10-03T00:13:42.300Z,5.42
2018-10-03T00:16:10.385Z,5.78
2018-10-03T00:18:38.469Z,4.72
2018-10-03T00:21:06.548Z,6.20
2018-10-03T00:23:34.612Z,5.67
2018-10-03T00:26:02.670Z,4.30
2018-10-03T00:28:30.782Z,4.72
2018-10-03T00:30:58.873Z,4.03
2018-10-03T00:33:27.053Z,5.37
2018-10-03T00:35:55.104Z,4.35
2018-10-03T00:38:23.320Z,4.10
2018-10-03T00:40:51.397Z,4.80
2018-10-03T00:43:19.448Z,4.10
2018-10-03T00:45:47.492Z,4.15
2018-10-03T00:48:15.541Z,3.85
2018-10-03T00:50:43.597Z,4.05
2018-10-03T00:53:11.650Z,4.97
2018-10-03T00:55:39.705Z,4.55
2018-10-03T00:58:07.757Z,4.83
2018-10-03T01:00:35.815Z,3.98
2018-10-03T01:03:03.877Z,4.05
2018-10-03T01:05:31.940Z,3.98
2018-10-03T01:07:59.998Z,5.00
2018-10-03T01:10:28.054Z,3.87
2018-10-03T01:12:56.103Z,2.95
2018-10-03T01:15:24.159Z,4.10
2018-10-03T01:17:52.265Z,4.05
2018-10-03T01:20:20.318Z,4.05
2018-10-03T01:22:48.385Z,4.40
2018-10-03T01:25:16.451Z,4.20
2018-10-03T01:27:44.500Z,4.40
2018-10-03T01:30:12.559Z,4.12
2018-10-03T01:32:40.614Z,4.22
2018-10-03T01:35:08.869Z,4.40
2018-10-03T01:37:36.920Z,3.45
2018-10-03T01:40:05.018Z,3.90
2018-10-03T01:42:33.063Z,5.00
2018-10-03T01:45:01.129Z,4.35
2018-10-03T01:47:29.194Z,4.97
2018-10-03T01:49:57.246Z,4.78
2018-10-03T01:52:25.292Z,4.50
2018-10-03T01:54:53.346Z,4.83
2018-10-03T01:57:21.477Z,4.33
2018-10-03T01:59:49.532Z,4.58
2018-10-03T02:02:17.616Z,4.62
2018-10-03T02:04:45.696Z,4.25
2018-10-03T02:07:13.746Z,4.95
2018-10-03T02:09:41.799Z,5.03
2018-10-03T02:12:09.848Z,4.15
2018-10-03T02:14:37.926Z,4.28
2018-10-03T02:17:06.094Z,4.67
2018-10-03T02:19:34.136Z,6.17
2018-10-03T02:22:02.194Z,5.47
2018-10-03T02:24:30.277Z,6.08
2018-10-03T02:26:58.334Z,5.75
2018-10-03T02:29:26.384Z,4.78
2018-10-03T02:31:54.470Z,5.75
2018-10-03T02:34:22.554Z,6.08
2018-10-03T02:36:50.665Z,5.83
2018-10-03T02:39:18.716Z,6.78
2018-10-03T02:41:46.780Z,5.95
2018-10-03T02:44:14.840Z,5.05
2018-10-03T02:46:42.915Z,5.37
2018-10-03T02:49:10.972Z,4.90
2018-10-03T02:51:39.109Z,5.60
2018-10-03T02:54:07.168Z,6.17
2018-10-03T02:56:35.220Z,6.00
2018-10-03T02:59:03.269Z,5.60
2018-10-03T03:01:31.339Z,4.45
2018-10-03T03:03:59.377Z,6.67
2018-10-03T03:06:27.432Z,5.92
2018-10-03T03:08:55.497Z,5.78
2018-10-03T03:11:23.541Z,6.30
2018-10-03T03:13:51.590Z,6.97
2018-10-03T03:16:19.652Z,5.92
2018-10-03T03:18:47.707Z,6.45
2018-10-03T03:21:15.761Z,6.05
2018-10-03T03:23:43.829Z,6.08
2018-10-03T03:26:11.880Z,5.03
2018-10-03T03:28:39.936Z,6.08
2018-10-03T03:31:08.171Z,6.40
2018-10-03T03:33:36.519Z,5.70
2018-10-03T03:36:04.580Z,6.05
2018-10-03T03:38:32.641Z,6.33
2018-10-03T03:41:00.692Z,6.25
2018-10-03T03:43:28.810Z,6.55
2018-10-03T03:45:56.864Z,4.87
2018-10-03T03:48:24.917Z,6.12
2018-10-03T03:50:52.973Z,5.80
2018-10-03T03:53:21.074Z,6.50
2018-10-03T03:55:49.141Z,6.05
2018-10-03T03:58:17.193Z,5.40
2018-10-03T04:00:45.271Z,5.42
2018-10-03T04:03:13.329Z,6.08
2018-10-03T04:05:41.384Z,6.80
2018-10-03T04:08:09.618Z,6.37
2018-10-03T04:10:37.689Z,6.00
2018-10-03T04:13:05.754Z,5.25
2018-10-03T04:15:33.818Z,6.28
2018-10-03T04:18:01.874Z,5.15
2018-10-03T04:20:29.930Z,6.20
2018-10-03T04:22:58.045Z,6.08
2018-10-03T04:25:26.106Z,5.50
2018-10-03T04:27:54.172Z,6.67
2018-10-03T04:30:22.242Z,6.42
2018-10-03T04:32:50.314Z,6.58
2018-10-03T04:35:18.365Z,6.15
2018-10-03T04:37:46.442Z,7.75
2018-10-03T04:40:14.502Z,5.65
2018-10-03T04:42:42.561Z,5.87
2018-10-03T04:45:10.609Z,6.78
2018-10-03T04:47:38.664Z,5.65
2018-10-03T04:50:06.754Z,6.30
2018-10-03T04:52:34.808Z,6.30
2018-10-03T04:55:02.868Z,5.05
2018-10-03T04:57:30.923Z,5.80
2018-10-03T04:59:58.968Z,5.87
2018-10-03T05:02:27.028Z,5.58
2018-10-03T05:04:55.081Z,5.15
2018-10-03T05:07:23.152Z,4.90
2018-10-03T05:09:51.207Z,4.53
2018-10-03T05:12:19.357Z,5.45
2018-10-03T05:14:47.428Z,6.40
2018-10-03T05:17:15.461Z,5.00
2018-10-03T05:19:43.508Z,5.58
2018-10-03T05:22:11.556Z,5.08
2018-10-03T05:24:39.613Z,3.98
2018-10-03T05:27:07.656Z,4.35
2018-10-03T05:29:35.709Z,4.85
2018-10-03T05:32:03.782Z,5.12
2018-10-03T05:34:31.832Z,5.15
2018-10-03T05:36:59.900Z,5.42
2018-10-03T05:39:28.010Z,4.55
2018-10-03T05:41:56.061Z,4.40
2018-10-03T05:44:24.278Z,4.80
2018-10-03T05:46:52.336Z,4.25
2018-10-03T05:49:20.388Z,5.28
2018-10-03T05:51:48.553Z,3.58
2018-10-03T05:54:16.626Z,4.30
2018-10-03T05:56:44.676Z,4.60
2018-10-03T05:59:12.737Z,4.12
2018-10-03T06:01:40.857Z,3.75
2018-10-03T06:04:08.913Z,4.20
2018-10-03T06:06:36.969Z,4.17
2018-10-03T06:09:08.052Z,3.45
2018-10-03T06:11:36.218Z,3.00
2018-10-03T06:14:04.272Z,3.40
2018-10-03T06:16:32.329Z,3.50
2018-10-03T06:19:00.373Z,3.67
2018-10-03T06:21:28.424Z,3.72
2018-10-03T06:23:56.468Z,3.50
2018-10-03T06:26:24.525Z,3.55
2018-10-03T06:28:52.581Z,4.20
2018-10-03T06:31:20.632Z,4.10
2018-10-03T06:33:48.681Z,3.30
2018-10-03T06:36:16.754Z,3.40
2018-10-03T06:38:44.821Z,3.98
2018-10-03T06:41:12.874Z,3.95
2018-10-03T06:43:40.934Z,4.10
2018-10-03T06:46:09.625Z,4.45
2018-10-03T06:48:37.681Z,3.42
2018-10-03T06:53:40.258Z,4.67
2018-10-03T06:56:08.308Z,4.03
2018-10-03T06:58:36.365Z,4.28
2018-10-03T07:01:04.421Z,4.00
2018-10-03T07:03:32.480Z,4.28
2018-10-03T07:06:00.525Z,3.70
2018-10-03T07:08:28.714Z,3.30
2018-10-03T07:10:56.757Z,3.42
2018-10-03T07:13:24.805Z,3.05
2018-10-03T07:15:52.860Z,3.98
2018-10-03T07:18:20.916Z,3.60
2018-10-03T07:20:48.964Z,3.37
2018-10-03T07:23:17.018Z,3.17
2018-10-03T07:25:45.065Z,3.92
2018-10-03T07:28:13.121Z,3.60
2018-10-03T07:30:41.169Z,3.27
2018-10-03T07:33:09.301Z,3.00
2018-10-03T07:35:37.336Z,3.58
2018-10-03T07:38:05.439Z,3.10
2018-10-03T07:40:33.484Z,3.50
2018-10-03T07:43:01.592Z,3.72
2018-10-03T07:45:29.737Z,3.62
2018-10-03T07:47:57.831Z,2.55
2018-10-03T07:50:25.837Z,3.17
2018-10-03T07:52:54.105Z,3.27
2018-10-03T07:55:22.137Z,3.05
2018-10-03T07:57:50.192Z,3.15
2018-10-03T08:00:24.074Z,2.65
2018-10-03T08:02:52.144Z,2.15
2018-10-03T08:05:20.197Z,2.65
2018-10-03T08:07:48.252Z,3.33
2018-10-03T08:10:16.346Z,2.30
2018-10-03T08:12:44.426Z,1.90
2018-10-03T08:15:13.470Z,2.25
2018-10-03T08:17:41.865Z,2.50
2018-10-03T08:20:10.040Z,2.10
2018-10-03T08:22:38.433Z,2.12
2018-10-03T08:25:06.481Z,2.30
2018-10-03T08:27:34.538Z,2.20
2018-10-03T08:30:02.624Z,2.92
2018-10-03T08:32:30.772Z,2.50
2018-10-03T08:34:58.714Z,2.85
2018-10-03T08:37:26.815Z,2.37
2018-10-03T08:39:55.278Z,2.40
2018-10-03T08:42:23.337Z,2.50
2018-10-03T08:44:51.401Z,2.70
2018-10-03T08:47:19.463Z,2.45
2018-10-03T08:49:47.509Z,2.30
2018-10-03T08:52:15.569Z,2.20
2018-10-03T08:54:43.648Z,2.60
2018-10-03T08:57:11.701Z,2.50
2018-10-03T08:59:39.897Z,2.83
2018-10-03T09:02:07.965Z,2.27
2018-10-03T09:04:36.194Z,3.00
2018-10-03T09:07:04.477Z,3.58
2018-10-03T09:09:32.537Z,2.40
2018-10-03T09:12:00.657Z,3.35
2018-10-03T09:14:28.717Z,2.80
2018-10-03T09:16:56.941Z,2.65
2018-10-03T09:19:25.016Z,3.55
2018-10-03T09:21:53.145Z,2.52
2018-10-03T09:24:21.156Z,2.60
2018-10-03T09:26:49.208Z,3.00
2018-10-03T09:29:17.298Z,2.55
2018-10-03T09:31:45.376Z,2.98
2018-10-03T09:34:13.429Z,2.65
2018-10-03T09:36:41.489Z,2.52
2018-10-03T09:41:44.597Z,2.75
2018-10-03T09:44:12.684Z,2.47
2018-10-03T09:46:41.417Z,2.22
2018-10-03T09:49:09.480Z,2.22
2018-10-03T09:51:37.675Z,2.60
2018-10-03T09:54:06.072Z,2.45
2018-10-03T09:56:34.360Z,2.77
2018-10-03T09:59:02.426Z,2.50
2018-10-03T10:01:32.676Z,2.60
2018-10-03T10:04:02.465Z,3.55
2018-10-03T10:06:31.608Z,2.83
2018-10-03T10:08:59.670Z,3.65
2018-10-03T10:11:27.841Z,2.75
2018-10-03T10:13:55.808Z,2.72
2018-10-03T10:16:24.682Z,2.90
2018-10-03T10:18:52.737Z,3.65
2018-10-03T10:21:20.789Z,3.35
2018-10-03T10:23:48.848Z,2.67
2018-10-03T10:26:16.893Z,2.92
2018-10-03T10:28:44.944Z,3.27
2018-10-03T10:31:12.993Z,3.35
2018-10-03T10:33:41.053Z,2.70
2018-10-03T10:36:09.133Z,3.45
2018-10-03T10:38:37.217Z,3.42
2018-10-03T10:41:05.331Z,2.50
2018-10-03T10:43:33.527Z,3.72
2018-10-03T10:46:01.469Z,3.17
2018-10-03T10:48:29.776Z,2.83
2018-10-03T10:50:57.833Z,3.10
2018-10-03T10:53:25.892Z,4.45
2018-10-03T10:55:53.956Z,3.42
2018-10-03T10:58:22.029Z,2.77
2018-10-03T11:06:55.839Z,3.35
2018-10-03T11:09:23.889Z,2.40
2018-10-03T11:11:51.969Z,3.12
2018-10-03T11:14:20.086Z,2.60
2018-10-03T11:16:48.209Z,2.62
2018-10-03T11:19:16.177Z,2.47
2018-10-03T11:21:44.226Z,2.80
2018-10-03T11:24:12.371Z,3.47
2018-10-03T11:26:40.389Z,2.77
2018-10-03T11:29:08.456Z,2.87
2018-10-03T11:31:36.606Z,3.80
2018-10-03T11:34:04.672Z,3.33
2018-10-03T11:36:32.753Z,2.92
2018-10-03T11:39:00.801Z,3.20
2018-10-03T11:41:28.852Z,4.05
2018-10-03T11:43:57.005Z,2.42
2018-10-03T11:46:25.006Z,3.05
2018-10-03T11:48:53.049Z,2.83
2018-10-03T11:51:21.116Z,2.45
2018-10-03T11:53:49.185Z,2.40
2018-10-03T11:56:17.246Z,3.12
2018-10-03T11:58:45.292Z,2.45
2018-10-03T12:01:13.352Z,2.85
2018-10-03T12:03:41.432Z,2.65
2018-10-03T12:06:09.484Z,2.35
2018-10-03T12:08:37.532Z,2.40
2018-10-03T12:11:05.592Z,2.00
2018-10-03T12:13:33.640Z,2.87
2018-10-03T12:16:01.700Z,2.10
2018-10-03T12:18:30.092Z,2.35
2018-10-03T12:20:58.162Z,2.52
2018-10-03T12:23:26.241Z,2.75
2018-10-03T12:25:54.315Z,2.17
2018-10-03T12:28:22.360Z,2.70
2018-10-03T12:30:50.497Z,2.40
2018-10-03T12:33:18.609Z,2.50
2018-10-03T12:35:46.645Z,2.70
2018-10-03T12:38:14.709Z,2.65
2018-10-03T12:40:42.761Z,2.37
2018-10-03T12:43:10.835Z,2.70
2018-10-03T12:45:38.880Z,2.60
2018-10-03T12:48:06.927Z,3.30
2018-10-03T12:50:34.997Z,3.30
2018-10-03T12:53:03.048Z,2.67
2018-10-03T12:55:31.105Z,3.05
2018-10-03T12:57:59.157Z,2.80
2018-10-03T13:00:30.722Z,2.45
2018-10-03T13:03:00.059Z,3.00
2018-10-03T13:05:30.260Z,3.08
2018-10-03T13:07:59.077Z,2.37
2018-10-03T13:10:27.189Z,2.00
2018-10-03T13:12:55.257Z,3.37
2018-10-03T13:15:23.312Z,2.35
2018-10-03T13:17:51.372Z,2.70
2018-10-03T13:20:19.421Z,2.37
2018-10-03T13:22:47.488Z,2.70
2018-10-03T13:25:15.747Z,2.42
2018-10-03T13:27:43.788Z,3.12
2018-10-03T13:30:11.872Z,2.65
2018-10-03T13:32:39.934Z,2.80
2018-10-03T13:35:08.017Z,3.20
2018-10-03T13:37:36.081Z,2.05
2018-10-03T13:40:04.135Z,3.30
2018-10-03T13:42:32.196Z,2.65
2018-10-03T13:45:00.292Z,2.60
2018-10-03T13:47:28.341Z,2.45
2018-10-03T13:49:56.404Z,2.90
2018-10-03T13:52:24.460Z,2.42
2018-10-03T13:54:52.518Z,2.80
2018-10-03T13:57:20.565Z,2.70
2018-10-03T13:59:48.628Z,2.72
2018-10-03T14:02:16.689Z,2.22
2018-10-03T14:04:44.746Z,2.50
2018-10-03T14:07:12.808Z,2.52
2018-10-03T14:09:40.865Z,2.40
2018-10-03T14:12:08.958Z,2.83
2018-10-03T14:14:37.035Z,3.02
2018-10-03T14:17:05.094Z,2.20
2018-10-03T14:19:33.161Z,3.00
2018-10-03T14:22:01.215Z,2.90
2018-10-03T14:24:29.399Z,2.80
2018-10-03T14:26:57.413Z,1.92
2018-10-03T14:29:25.489Z,2.80
2018-10-03T14:31:53.562Z,2.12
2018-10-03T14:34:21.633Z,2.47
2018-10-03T14:36:49.716Z,3.10
2018-10-03T14:39:17.801Z,3.87
2018-10-03T14:41:45.885Z,2.15
2018-10-03T14:44:13.941Z,2.20
2018-10-03T14:46:42.072Z,2.83
2018-10-03T14:49:10.124Z,2.30
2018-10-03T14:51:38.204Z,2.42
2018-10-03T14:54:06.273Z,2.72
2018-10-03T14:56:34.321Z,3.27
2018-10-03T14:59:02.373Z,2.85
2018-10-03T15:01:30.476Z,2.40
2018-10-03T15:03:58.494Z,2.40
2018-10-03T15:06:26.557Z,2.47
2018-10-03T15:08:54.677Z,2.77
2018-10-03T15:11:22.757Z,2.10
2018-10-03T15:13:50.808Z,2.40
2018-10-03T15:16:18.873Z,2.45
2018-10-03T15:18:46.915Z,2.55
2018-10-03T15:21:14.988Z,2.20
2018-10-03T15:23:43.033Z,2.05
2018-10-03T15:26:11.100Z,2.60
2018-10-03T15:28:39.144Z,2.20
2018-10-03T15:31:07.257Z,2.25
2018-10-03T15:33:35.304Z,1.70
2018-10-03T15:36:04.385Z,2.00
2018-10-03T15:38:32.547Z,2.55
2018-10-03T15:41:00.609Z,3.87
2018-10-03T15:43:28.677Z,2.72
2018-10-03T15:45:56.742Z,2.70
2018-10-03T15:48:24.793Z,2.12
2018-10-03T15:50:52.861Z,2.77
2018-10-03T15:53:20.917Z,2.35
2018-10-03T15:55:48.975Z,2.15
2018-10-03T15:58:23.716Z,2.62
2018-10-03T16:00:51.790Z,3.15
2018-10-03T16:03:19.833Z,2.40
2018-10-03T16:05:47.905Z,2.60
2018-10-03T16:08:15.951Z,2.05
2018-10-03T16:10:44.178Z,2.05
2018-10-03T16:13:12.225Z,2.45
2018-10-03T16:15:40.275Z,1.80
2018-10-03T16:18:08.348Z,2.33
2018-10-03T16:20:36.755Z,2.40
2018-10-03T16:23:04.961Z,3.05
2018-10-03T16:25:33.019Z,3.17
2018-10-03T16:28:01.070Z,2.42
2018-10-03T16:30:29.120Z,2.25
2018-10-03T16:32:57.175Z,3.30
2018-10-03T16:35:25.248Z,2.33
2018-10-03T16:37:53.313Z,2.10
2018-10-03T16:40:21.528Z,2.22
2018-10-03T16:42:49.578Z,2.37
2018-10-03T16:45:17.649Z,2.52
2018-10-03T16:47:45.710Z,2.40
2018-10-03T16:50:13.773Z,2.65
2018-10-03T16:52:41.920Z,2.42
2018-10-03T16:55:10.002Z,2.40
2018-10-03T16:57:38.094Z,2.50
2018-10-03T17:00:06.146Z,2.72
2018-10-03T17:02:34.238Z,2.27
2018-10-03T17:05:02.289Z,2.50
2018-10-03T17:07:30.413Z,3.00
2018-10-03T17:09:58.477Z,2.72
2018-10-03T17:12:26.580Z,3.15
2018-10-03T17:14:54.649Z,2.62
2018-10-03T17:17:22.700Z,2.67
2018-10-03T17:19:50.764Z,2.37
2018-10-03T17:22:18.809Z,2.77
2018-10-03T17:24:46.874Z,2.70
2018-10-03T17:27:14.929Z,2.35
2018-10-03T17:29:42.992Z,2.85
2018-10-03T17:32:11.044Z,2.90
2018-10-03T17:34:39.121Z,2.85
2018-10-03T17:37:07.180Z,3.22
2018-10-03T17:39:35.221Z,2.30
2018-10-03T17:42:03.275Z,2.20
2018-10-03T17:44:31.319Z,2.25
2018-10-03T17:46:59.372Z,2.92
2018-10-03T17:49:27.423Z,2.83
2018-10-03T17:51:55.486Z,2.50
2018-10-03T17:54:23.572Z,3.17
2018-10-03T17:56:51.649Z,2.50
2018-10-03T17:59:19.729Z,3.15
2018-10-03T18:01:49.764Z,2.77
2018-10-03T18:04:17.813Z,2.42
2018-10-03T18:06:45.914Z,3.15
2018-10-03T18:09:14.021Z,2.00
2018-10-03T18:11:42.013Z,2.80
2018-10-03T18:14:10.120Z,2.30
2018-10-03T18:16:38.176Z,3.00
2018-10-03T18:19:06.435Z,2.75
2018-10-03T18:21:35.178Z,2.30
2018-10-03T18:24:03.233Z,2.67
2018-10-03T18:26:31.281Z,3.17
2018-10-03T18:28:59.363Z,2.12
2018-10-03T18:31:27.479Z,2.65
2018-10-03T18:33:55.516Z,2.17
2018-10-03T18:36:23.597Z,2.33
2018-10-03T18:38:51.824Z,2.65
2018-10-03T18:41:20.136Z,2.15
2018-10-03T18:43:48.324Z,2.62
2018-10-03T18:46:16.402Z,2.72
2018-10-03T18:48:44.600Z,2.45
2018-10-03T18:51:12.677Z,2.42
2018-10-03T18:53:40.730Z,2.50
2018-10-03T18:56:08.820Z,2.72
2018-10-03T18:58:36.873Z,2.55
2018-10-03T19:01:04.929Z,2.02
2018-10-03T19:03:32.980Z,2.70
2018-10-03T19:06:01.101Z,2.72
2018-10-03T19:08:29.133Z,2.58
2018-10-03T19:10:57.201Z,2.67
2018-10-03T19:13:25.252Z,2.60
2018-10-03T19:15:53.318Z,2.40
2018-10-03T19:18:21.508Z,2.37
2018-10-03T19:20:49.581Z,2.90
2018-10-03T19:23:17.685Z,2.25
2018-10-03T19:25:45.757Z,2.12
2018-10-03T19:28:13.792Z,2.10
2018-10-03T19:30:41.838Z,2.30
2018-10-03T19:33:09.901Z,2.10
2018-10-03T19:35:38.001Z,2.90
2018-10-03T19:38:06.017Z,2.37
2018-10-03T19:40:34.129Z,2.10
2018-10-03T19:43:02.189Z,2.40
2018-10-03T19:45:30.245Z,2.55
2018-10-03T19:47:58.322Z,2.65
2018-10-03T19:50:26.356Z,2.70
2018-10-03T19:52:54.441Z,2.58
2018-10-03T19:55:22.491Z,2.47
2018-10-03T19:57:50.654Z,2.77
2018-10-03T20:00:18.749Z,3.50
2018-10-03T20:02:46.808Z,2.40
2018-10-03T20:05:14.853Z,2.50
2018-10-03T20:07:42.914Z,2.70
2018-10-03T20:10:10.961Z,2.40
2018-10-03T20:12:39.025Z,2.85
2018-10-03T20:15:07.253Z,2.47
2018-10-03T20:17:35.304Z,2.17
2018-10-03T20:20:03.388Z,2.10
2018-10-03T20:22:31.447Z,3.05
2018-10-03T20:24:59.494Z,3.37
2018-10-03T20:27:27.768Z,2.20
2018-10-03T20:29:55.716Z,3.10
2018-10-03T20:32:23.761Z,2.58
2018-10-03T20:34:51.824Z,3.17
2018-10-03T20:37:19.908Z,2.65
2018-10-03T20:39:47.969Z,2.70
2018-10-03T20:42:16.025Z,2.80
2018-10-03T20:44:44.066Z,2.42
2018-10-03T20:47:12.117Z,2.80
2018-10-03T20:49:40.169Z,2.20
2018-10-03T20:52:08.313Z,2.55
2018-10-03T20:54:36.392Z,2.75
2018-10-03T20:57:04.464Z,2.27
2018-10-03T20:59:32.500Z,2.98
2018-10-03T21:02:00.559Z,2.87
2018-10-03T21:04:28.609Z,2.37
2018-10-03T21:06:56.665Z,2.08
2018-10-03T21:09:24.735Z,2.58
2018-10-03T21:11:52.805Z,2.62
2018-10-03T21:14:20.857Z,2.08
2018-10-03T21:16:48.928Z,2.37
2018-10-03T21:19:17.034Z,2.40
2018-10-03T21:21:45.256Z,2.42
2018-10-03T21:24:13.418Z,2.60
2018-10-03T21:26:41.471Z,2.27
2018-10-03T21:29:09.529Z,2.77
2018-10-03T21:31:37.637Z,2.47
2018-10-03T21:34:05.718Z,3.50
2018-10-03T21:36:33.753Z,2.25
2018-10-03T21:39:01.796Z,3.17
2018-10-03T21:41:29.845Z,2.37
2018-10-03T21:43:57.902Z,2.70
2018-10-03T21:46:25.958Z,2.83
2018-10-03T21:48:54.008Z,3.60
2018-10-03T21:51:22.053Z,2.75
2018-10-03T21:53:50.105Z,3.37
2018-10-03T21:56:18.148Z,2.62
2018-10-03T21:58:46.205Z,2.42
2018-10-03T22:01:15.116Z,3.05
2018-10-03T22:03:43.480Z,2.35
2018-10-03T22:06:11.524Z,2.90
2018-10-03T22:08:39.576Z,2.92
2018-10-03T22:11:07.645Z,2.02
2018-10-03T22:13:35.707Z,3.05
2018-10-03T22:16:03.745Z,2.40
2018-10-03T22:18:31.798Z,2.60
2018-10-03T22:20:59.856Z,2.20
2018-10-03T22:23:27.914Z,3.27
2018-10-03T22:25:55.965Z,2.80
2018-10-03T22:28:24.037Z,2.17
2018-10-03T22:30:52.101Z,2.20
2018-10-03T22:33:20.153Z,3.20
2018-10-03T22:35:48.209Z,2.42
2018-10-03T22:38:16.266Z,2.50
2018-10-03T22:40:44.326Z,2.90
2018-10-03T22:43:12.373Z,2.50
2018-10-03T22:45:40.428Z,2.75
2018-10-03T22:48:08.464Z,2.60
2018-10-03T22:50:36.525Z,2.52
2018-10-03T22:53:04.576Z,2.20
2018-10-03T22:55:32.629Z,2.30
2018-10-03T22:58:00.689Z,2.47
2018-10-03T23:00:28.738Z,2.83
2018-10-03T23:02:56.790Z,2.72
2018-10-03T23:05:24.840Z,3.05
2018-10-03T23:07:53.029Z,2.02
2018-10-03T23:10:21.085Z,2.05
2018-10-03T23:12:49.155Z,2.55
2018-10-03T23:15:17.644Z,3.90
2018-10-03T23:17:45.689Z,2.50
2018-10-03T23:20:13.748Z,2.90
2018-10-03T23:22:41.801Z,3.05
2018-10-03T23:25:09.864Z,2.58
2018-10-03T23:27:37.916Z,2.10
2018-10-03T23:30:06.264Z,2.37
2018-10-03T23:32:34.312Z,2.77
2018-10-03T23:35:02.388Z,2.25
2018-10-03T23:37:30.460Z,3.35
2018-10-03T23:39:58.529Z,3.42
2018-10-03T23:42:26.580Z,2.60
2018-10-03T23:44:54.632Z,2.80
2018-10-03T23:47:22.683Z,2.85
2018-10-03T23:49:50.755Z,3.02
2018-10-03T23:52:18.790Z,2.33
2018-10-03T23:54:46.828Z,3.50
2018-10-03T23:57:14.887Z,2.60
2018-10-03T23:59:43.068Z,2.58
